createdAt,value
2022-11-09T00:00:02.976Z,2.60
2022-11-09T00:01:03.264Z,2.72
2022-11-09T00:02:02.607Z,2.77
2022-11-09T00:03:02.201Z,3.91
2022-11-09T00:04:02.598Z,3.96
2022-11-09T00:05:01.940Z,2.65
2022-11-09T00:06:01.935Z,2.28
2022-11-09T00:07:02.571Z,2.40
2022-11-09T00:08:02.586Z,2.68
2022-11-09T00:09:07.495Z,2.12
2022-11-09T00:10:03.179Z,2.52
2022-11-09T00:11:02.814Z,1.83
2022-11-09T00:12:03.336Z,1.04
2022-11-09T00:13:02.956Z,2.48
2022-11-09T00:14:02.810Z,2.20
2022-11-09T00:15:03.246Z,1.76
2022-11-09T00:16:02.977Z,3.13
2022-11-09T00:17:01.786Z,2.15
2022-11-09T00:18:02.138Z,1.52
2022-11-09T00:19:02.404Z,1.84
2022-11-09T00:20:01.911Z,2.60
2022-11-09T00:21:02.366Z,2.08
2022-11-09T00:22:02.213Z,1.95
2022-11-09T00:23:02.759Z,2.40
2022-11-09T00:24:02.367Z,2.93
2022-11-09T00:25:02.449Z,2.00
2022-11-09T00:26:02.801Z,1.44
2022-11-09T00:27:02.537Z,1.75
2022-11-09T00:28:02.761Z,1.68
2022-11-09T00:29:02.470Z,1.34
2022-11-09T00:30:03.018Z,1.16
2022-11-09T00:31:02.626Z,1.79
2022-11-09T00:32:02.649Z,1.56
2022-11-09T00:33:02.837Z,1.60
2022-11-09T00:34:02.909Z,1.22
2022-11-09T00:35:02.719Z,0.64
2022-11-09T00:36:03.021Z,0.92
2022-11-09T00:37:03.221Z,1.52
2022-11-09T00:38:03.333Z,1.34
2022-11-09T00:39:02.596Z,1.34
2022-11-09T00:40:03.205Z,1.28
2022-11-09T00:41:03.103Z,0.61
2022-11-09T00:42:03.421Z,0.28
2022-11-09T00:43:03.391Z,0.41
2022-11-09T00:44:03.064Z,0.08
2022-11-09T00:45:03.153Z,0.00
2022-11-09T00:46:03.376Z,0.36
2022-11-09T00:47:02.386Z,0.00
2022-11-09T00:48:02.840Z,0.00
2022-11-09T00:49:02.577Z,0.00
2022-11-09T00:50:02.864Z,0.00
2022-11-09T00:51:02.417Z,0.00
2022-11-09T00:52:01.901Z,0.00
2022-11-09T00:53:02.083Z,0.48
2022-11-09T00:54:01.848Z,0.00
2022-11-09T00:55:02.364Z,0.24
2022-11-09T00:56:02.191Z,1.30
2022-11-09T00:57:01.953Z,1.02
2022-11-09T00:58:02.079Z,0.16
2022-11-09T00:59:01.940Z,0.37
2022-11-09T01:00:02.309Z,0.80
2022-11-09T01:01:02.113Z,0.00
2022-11-09T01:02:02.894Z,0.00
2022-11-09T01:03:02.667Z,0.16
2022-11-09T01:04:03.129Z,0.64
2022-11-09T01:05:02.974Z,0.73
2022-11-09T01:06:02.736Z,0.00
2022-11-09T01:07:02.309Z,0.00
2022-11-09T01:08:02.378Z,0.00
2022-11-09T01:09:02.748Z,0.00
2022-11-09T01:10:02.181Z,0.00
2022-11-09T01:11:02.891Z,0.40
2022-11-09T01:12:02.417Z,0.00
2022-11-09T01:13:02.956Z,0.28
2022-11-09T01:14:02.453Z,0.77
2022-11-09T01:15:02.897Z,1.08
2022-11-09T01:16:02.404Z,0.28
2022-11-09T01:17:02.947Z,1.00
2022-11-09T01:18:02.775Z,1.10
2022-11-09T01:19:03.445Z,0.92
2022-11-09T01:20:02.868Z,1.71
2022-11-09T01:21:03.017Z,1.16
2022-11-09T01:22:02.662Z,1.22
2022-11-09T01:23:02.589Z,0.90
2022-11-09T01:24:03.024Z,0.96
2022-11-09T01:25:02.988Z,1.06
2022-11-09T01:26:02.865Z,0.61
2022-11-09T01:27:02.744Z,1.02
2022-11-09T01:28:02.607Z,1.14
2022-11-09T01:29:02.470Z,0.53
2022-11-09T01:30:03.065Z,0.88
2022-11-09T01:31:02.639Z,0.33
2022-11-09T01:32:03.426Z,0.84
2022-11-09T01:33:03.034Z,0.00
2022-11-09T01:34:03.452Z,1.00
2022-11-09T01:35:03.075Z,0.41
2022-11-09T01:36:03.471Z,1.00
2022-11-09T01:37:02.800Z,1.34
2022-11-09T01:38:02.612Z,0.85
2022-11-09T01:39:03.216Z,0.68
2022-11-09T01:40:02.777Z,0.77
2022-11-09T01:41:02.632Z,1.47
2022-11-09T01:42:03.111Z,1.64
2022-11-09T01:43:03.397Z,0.80
2022-11-09T01:44:03.121Z,0.24
2022-11-09T01:45:02.975Z,0.90
2022-11-09T01:46:03.429Z,1.20
2022-11-09T01:47:02.762Z,0.85
2022-11-09T01:48:02.634Z,1.06
2022-11-09T01:49:02.627Z,0.84
2022-11-09T01:50:02.437Z,0.77
2022-11-09T01:51:02.852Z,0.36
2022-11-09T01:52:03.309Z,0.00
2022-11-09T01:53:03.358Z,0.04
2022-11-09T01:54:03.115Z,0.57
2022-11-09T01:55:03.470Z,0.44
2022-11-09T01:56:03.215Z,0.28
2022-11-09T01:57:02.812Z,0.24
2022-11-09T01:58:02.579Z,0.00
2022-11-09T01:59:02.500Z,1.22
2022-11-09T02:00:02.946Z,0.16
2022-11-09T02:01:02.680Z,1.10
2022-11-09T02:02:02.252Z,0.24
2022-11-09T02:03:02.031Z,0.04
2022-11-09T02:04:01.823Z,0.85
2022-11-09T02:05:01.859Z,0.96
2022-11-09T02:06:02.427Z,0.40
2022-11-09T02:07:02.974Z,0.44
2022-11-09T02:08:03.029Z,1.04
2022-11-09T02:09:02.781Z,0.94
2022-11-09T02:10:02.660Z,0.98
2022-11-09T02:11:03.162Z,1.28
2022-11-09T02:12:02.499Z,1.02
2022-11-09T02:13:02.345Z,1.22
2022-11-09T02:14:02.076Z,0.85
2022-11-09T02:15:02.638Z,0.80
2022-11-09T02:16:02.080Z,1.06
2022-11-09T02:17:02.539Z,1.12
2022-11-09T02:18:02.501Z,1.34
2022-11-09T02:19:02.361Z,0.90
2022-11-09T02:20:02.123Z,0.16
2022-11-09T02:21:02.631Z,1.20
2022-11-09T02:22:02.829Z,1.24
2022-11-09T02:23:02.958Z,1.28
2022-11-09T02:24:02.596Z,1.02
2022-11-09T02:25:02.956Z,0.80
2022-11-09T02:26:02.567Z,0.90
2022-11-09T02:27:03.029Z,0.96
2022-11-09T02:28:02.702Z,0.98
2022-11-09T02:29:03.183Z,0.56
2022-11-09T02:30:03.182Z,0.77
2022-11-09T02:31:02.797Z,0.73
2022-11-09T02:32:03.243Z,0.56
2022-11-09T02:33:02.759Z,0.85
2022-11-09T02:34:02.973Z,0.84
2022-11-09T02:35:02.780Z,0.69
2022-11-09T02:36:03.064Z,1.08
2022-11-09T02:37:02.348Z,1.42
2022-11-09T02:38:02.155Z,1.47
2022-11-09T02:39:02.396Z,1.12
2022-11-09T02:40:02.555Z,1.00
2022-11-09T02:41:02.078Z,0.81
2022-11-09T02:42:05.858Z,0.87
2022-11-09T02:43:02.933Z,1.22
2022-11-09T02:44:03.155Z,1.56
2022-11-09T02:45:03.350Z,1.32
2022-11-09T02:46:02.971Z,0.69
2022-11-09T02:47:02.393Z,1.18
2022-11-09T02:48:02.069Z,1.42
2022-11-09T02:49:02.593Z,0.96
2022-11-09T02:50:02.333Z,1.26
2022-11-09T02:51:02.538Z,1.44
2022-11-09T02:52:03.062Z,1.16
2022-11-09T02:53:02.564Z,1.18
2022-11-09T02:54:03.040Z,0.92
2022-11-09T02:55:02.510Z,1.26
2022-11-09T02:56:02.989Z,1.56
2022-11-09T02:57:02.089Z,1.03
2022-11-09T02:58:02.132Z,1.28
2022-11-09T02:59:02.064Z,1.10
2022-11-09T03:00:01.928Z,1.02
2022-11-09T03:01:02.544Z,1.16
2022-11-09T03:02:02.083Z,1.06
2022-11-09T03:03:02.489Z,0.92
2022-11-09T03:04:02.712Z,0.88
2022-11-09T03:05:02.593Z,1.06
2022-11-09T03:06:02.372Z,0.12
2022-11-09T03:07:02.535Z,0.24
2022-11-09T03:08:02.703Z,0.69
2022-11-09T03:09:02.393Z,0.85
2022-11-09T03:10:02.664Z,0.16
2022-11-09T03:11:02.285Z,0.00
2022-11-09T03:12:02.254Z,0.33
2022-11-09T03:13:01.983Z,0.00
2022-11-09T03:14:02.517Z,0.24
2022-11-09T03:15:02.161Z,0.69
2022-11-09T03:16:02.285Z,0.52
2022-11-09T03:17:02.081Z,1.06
2022-11-09T03:18:02.192Z,0.08
2022-11-09T03:19:02.108Z,0.00
2022-11-09T03:20:02.765Z,0.60
2022-11-09T03:21:02.356Z,0.24
2022-11-09T03:22:02.210Z,0.00
2022-11-09T03:23:02.295Z,0.72
2022-11-09T03:24:02.199Z,0.12
2022-11-09T03:25:02.690Z,0.52
2022-11-09T03:26:02.517Z,0.49
2022-11-09T03:27:02.391Z,0.94
2022-11-09T03:28:02.896Z,0.84
2022-11-09T03:29:02.683Z,1.22
2022-11-09T03:30:02.839Z,0.88
2022-11-09T03:31:02.716Z,0.98
2022-11-09T03:32:02.502Z,1.38
2022-11-09T03:33:02.780Z,0.60
2022-11-09T03:34:02.510Z,0.53
2022-11-09T03:35:02.988Z,0.80
2022-11-09T03:36:03.060Z,0.00
2022-11-09T03:37:03.133Z,0.60
2022-11-09T03:38:03.125Z,0.16
2022-11-09T03:39:02.712Z,0.73
2022-11-09T03:40:03.247Z,0.80
2022-11-09T03:41:02.858Z,0.61
2022-11-09T03:42:02.653Z,0.00
2022-11-09T03:43:03.264Z,0.52
2022-11-09T03:44:02.775Z,0.00
2022-11-09T03:45:02.793Z,0.80
2022-11-09T03:46:02.984Z,0.12
2022-11-09T03:47:02.836Z,0.00
2022-11-09T03:48:03.368Z,0.36
2022-11-09T03:49:03.363Z,1.26
2022-11-09T03:50:02.984Z,0.94
2022-11-09T03:51:03.379Z,0.24
2022-11-09T03:52:02.038Z,0.66
2022-11-09T03:53:01.866Z,0.12
2022-11-09T03:54:02.253Z,0.28
2022-11-09T03:55:02.295Z,0.00
2022-11-09T03:56:02.188Z,0.28
2022-11-09T03:57:02.125Z,0.81
2022-11-09T03:58:02.269Z,0.00
2022-11-09T03:59:02.108Z,0.28
2022-11-09T04:00:01.987Z,0.00
2022-11-09T04:01:02.493Z,0.00
2022-11-09T04:02:03.233Z,0.36
2022-11-09T04:03:02.896Z,0.41
2022-11-09T04:04:02.596Z,0.57
2022-11-09T04:05:03.059Z,0.48
2022-11-09T04:06:02.816Z,1.14
2022-11-09T04:07:02.519Z,0.65
2022-11-09T04:08:02.843Z,0.72
2022-11-09T04:09:02.756Z,0.65
2022-11-09T04:10:02.557Z,0.73
2022-11-09T04:11:02.308Z,1.10
2022-11-09T04:12:02.745Z,0.64
2022-11-09T04:13:03.110Z,0.64
2022-11-09T04:14:02.853Z,1.14
2022-11-09T04:15:02.603Z,0.90
2022-11-09T04:16:03.127Z,0.60
2022-11-09T04:17:02.857Z,0.00
2022-11-09T04:18:03.312Z,0.00
2022-11-09T04:19:03.320Z,0.00
2022-11-09T04:20:03.073Z,0.41
2022-11-09T04:21:02.878Z,0.16
2022-11-09T04:22:02.391Z,0.16
2022-11-09T04:23:02.427Z,0.00
2022-11-09T04:24:02.806Z,0.00
2022-11-09T04:25:02.650Z,0.00
2022-11-09T04:26:02.684Z,0.88
2022-11-09T04:27:02.792Z,1.10
2022-11-09T04:28:02.823Z,0.44
2022-11-09T04:29:02.394Z,0.49
2022-11-09T04:30:03.095Z,0.44
2022-11-09T04:31:02.635Z,0.00
2022-11-09T04:32:02.263Z,0.24
2022-11-09T04:33:02.126Z,0.00
2022-11-09T04:34:01.876Z,0.37
2022-11-09T04:35:02.418Z,0.00
2022-11-09T04:36:02.286Z,0.24
2022-11-09T04:37:03.072Z,0.96
2022-11-09T04:38:02.855Z,0.94
2022-11-09T04:39:02.552Z,0.37
2022-11-09T04:40:02.671Z,0.96
2022-11-09T04:41:02.591Z,0.77
2022-11-09T04:43:03.319Z,0.00
2022-11-09T04:44:03.079Z,0.45
2022-11-09T04:45:03.100Z,0.00
2022-11-09T04:46:02.864Z,0.28
2022-11-09T04:47:02.465Z,0.73
2022-11-09T04:48:02.195Z,0.00
2022-11-09T04:49:02.625Z,0.28
2022-11-09T04:50:02.480Z,0.77
2022-11-09T04:51:02.204Z,0.08
2022-11-09T04:52:02.591Z,0.00
2022-11-09T04:53:06.738Z,0.00
2022-11-09T04:54:02.404Z,0.00
2022-11-09T04:55:02.867Z,0.00
2022-11-09T04:56:02.631Z,0.65
2022-11-09T04:57:03.093Z,0.36
2022-11-09T04:58:03.105Z,0.08
2022-11-09T04:59:02.906Z,0.28
2022-11-09T05:00:03.381Z,0.20
2022-11-09T05:01:03.191Z,0.08
2022-11-09T05:02:02.724Z,0.94
2022-11-09T05:03:02.516Z,0.28
2022-11-09T05:04:02.750Z,0.00
2022-11-09T05:05:02.396Z,0.00
2022-11-09T05:06:02.938Z,0.00
2022-11-09T05:07:03.265Z,0.00
2022-11-09T05:08:03.428Z,0.36
2022-11-09T05:09:03.099Z,1.10
2022-11-09T05:10:03.264Z,0.84
2022-11-09T05:11:03.085Z,0.65
2022-11-09T05:12:02.536Z,1.06
2022-11-09T05:13:02.215Z,1.10
2022-11-09T05:14:02.447Z,1.72
2022-11-09T05:15:02.149Z,1.42
2022-11-09T05:16:02.574Z,0.60
2022-11-09T05:17:03.054Z,0.32
2022-11-09T05:18:02.852Z,0.45
2022-11-09T05:19:03.592Z,0.48
2022-11-09T05:20:03.190Z,0.65
2022-11-09T05:21:03.014Z,0.12
2022-11-09T05:22:03.580Z,0.72
2022-11-09T05:23:03.158Z,0.94
2022-11-09T05:24:03.563Z,2.00
2022-11-09T05:25:03.389Z,1.55
2022-11-09T05:26:03.643Z,1.32
2022-11-09T05:27:03.019Z,1.06
2022-11-09T05:28:02.645Z,2.03
2022-11-09T05:29:02.433Z,1.42
2022-11-09T05:30:02.925Z,1.96
2022-11-09T05:31:02.710Z,0.94
2022-11-09T05:32:03.270Z,1.64
2022-11-09T05:33:03.282Z,1.48
2022-11-09T05:34:03.186Z,1.79
2022-11-09T05:35:03.051Z,1.26
2022-11-09T05:36:02.827Z,1.26
2022-11-09T05:37:03.812Z,1.76
2022-11-09T05:38:03.413Z,1.88
2022-11-09T05:39:03.054Z,1.47
2022-11-09T05:40:02.851Z,1.67
2022-11-09T05:41:03.305Z,1.56
2022-11-09T05:42:02.923Z,0.94
2022-11-09T05:43:02.552Z,1.06
2022-11-09T05:44:02.930Z,1.76
2022-11-09T05:45:27.965Z,1.51
2022-11-09T05:46:06.533Z,1.08
2022-11-09T05:47:02.928Z,1.36
2022-11-09T05:48:03.223Z,1.84
2022-11-09T05:49:03.025Z,1.99
2022-11-09T05:50:02.820Z,2.08
2022-11-09T05:51:03.337Z,1.16
2022-11-09T05:52:02.342Z,1.12
2022-11-09T05:53:02.825Z,1.28
2022-11-09T05:54:02.367Z,1.06
2022-11-09T05:55:02.234Z,0.57
2022-11-09T05:56:02.797Z,1.12
2022-11-09T05:57:03.343Z,1.16
2022-11-09T05:58:02.891Z,1.06
2022-11-09T05:59:02.728Z,1.34
2022-11-09T06:00:07.287Z,1.76
2022-11-09T06:01:02.666Z,0.90
2022-11-09T06:02:02.343Z,2.12
2022-11-09T06:03:02.883Z,1.12
2022-11-09T06:04:02.481Z,1.47
2022-11-09T06:05:02.520Z,1.36
2022-11-09T06:06:07.781Z,1.47
2022-11-09T06:07:02.138Z,1.71
2022-11-09T06:08:02.174Z,1.56
2022-11-09T06:09:01.967Z,1.42
2022-11-09T06:10:02.533Z,0.84
2022-11-09T06:11:02.322Z,0.49
2022-11-09T06:12:02.271Z,0.85
2022-11-09T06:13:02.643Z,1.28
2022-11-09T06:14:02.129Z,1.34
2022-11-09T06:15:02.093Z,1.75
2022-11-09T06:16:02.190Z,1.52
2022-11-09T06:17:02.437Z,1.12
2022-11-09T06:18:02.800Z,1.24
2022-11-09T06:19:02.711Z,1.02
2022-11-09T06:20:02.836Z,1.56
2022-11-09T06:21:02.552Z,1.18
2022-11-09T06:22:02.544Z,0.53
2022-11-09T06:23:03.891Z,0.65
2022-11-09T06:24:02.533Z,1.72
2022-11-09T06:25:02.992Z,1.40
2022-11-09T06:26:02.636Z,0.77
2022-11-09T06:27:01.939Z,0.57
2022-11-09T06:28:01.795Z,1.14
2022-11-09T06:29:01.674Z,1.42
2022-11-09T06:30:02.194Z,0.88
2022-11-09T06:31:01.649Z,0.12
2022-11-09T06:32:02.197Z,0.08
2022-11-09T06:33:02.888Z,0.00
2022-11-09T06:34:02.584Z,0.00
2022-11-09T06:35:02.213Z,0.00
2022-11-09T06:36:02.751Z,0.76
2022-11-09T06:37:02.456Z,0.77
2022-11-09T06:38:02.336Z,0.00
2022-11-09T06:39:02.891Z,0.52
2022-11-09T06:41:02.564Z,0.77
2022-11-09T06:42:02.647Z,0.90
2022-11-09T06:43:02.391Z,1.26
2022-11-09T06:44:02.410Z,0.64
2022-11-09T06:45:02.950Z,1.04
2022-11-09T06:46:02.691Z,1.67
2022-11-09T06:47:02.661Z,1.14
2022-11-09T06:48:02.956Z,1.36
2022-11-09T06:49:02.929Z,0.98
2022-11-09T06:50:02.883Z,1.06
2022-11-09T06:51:02.769Z,1.30
2022-11-09T06:52:02.920Z,0.84
2022-11-09T06:53:02.855Z,1.42
2022-11-09T06:54:03.124Z,2.80
2022-11-09T06:55:02.789Z,1.47
2022-11-09T06:56:02.692Z,1.47
2022-11-09T06:57:02.372Z,1.87
2022-11-09T06:58:02.704Z,1.80
2022-11-09T06:59:02.711Z,1.63
2022-11-09T07:00:02.513Z,1.38
2022-11-09T07:01:02.498Z,1.67
2022-11-09T07:02:03.809Z,1.06
2022-11-09T07:03:03.564Z,0.77
2022-11-09T07:04:03.532Z,2.08
2022-11-09T07:05:03.547Z,1.12
2022-11-09T07:06:03.425Z,0.85
2022-11-09T07:07:03.186Z,1.30
2022-11-09T07:08:03.174Z,1.76
2022-11-09T07:09:03.221Z,1.16
2022-11-09T07:10:03.139Z,0.81
2022-11-09T07:11:03.055Z,1.10
2022-11-09T07:12:02.769Z,1.71
2022-11-09T07:13:02.820Z,0.80
2022-11-09T07:14:02.699Z,1.87
2022-11-09T07:15:02.728Z,1.72
2022-11-09T07:16:02.754Z,1.68
2022-11-09T07:17:03.327Z,1.68
2022-11-09T07:18:03.392Z,2.16
2022-11-09T07:19:03.435Z,1.84
2022-11-09T07:20:03.503Z,1.48
2022-11-09T07:21:03.324Z,2.16
2022-11-09T07:22:03.569Z,1.72
2022-11-09T07:23:03.520Z,1.42
2022-11-09T07:24:03.577Z,1.80
2022-11-09T07:25:03.552Z,1.26
2022-11-09T07:26:03.534Z,0.98
2022-11-09T07:27:02.929Z,1.38
2022-11-09T07:28:03.050Z,0.80
2022-11-09T07:29:02.924Z,1.22
2022-11-09T07:30:02.935Z,0.80
2022-11-09T07:31:03.205Z,1.08
2022-11-09T07:32:02.926Z,2.03
2022-11-09T07:33:09.075Z,1.38
2022-11-09T07:34:02.545Z,0.98
2022-11-09T07:35:02.665Z,0.72
2022-11-09T07:36:02.831Z,1.00
2022-11-09T07:37:03.567Z,0.92
2022-11-09T07:38:03.725Z,0.92
2022-11-09T07:39:03.761Z,1.32
2022-11-09T07:40:03.646Z,0.73
2022-11-09T07:41:03.555Z,0.77
2022-11-09T07:42:03.224Z,1.22
2022-11-09T07:43:03.196Z,0.73
2022-11-09T07:44:03.129Z,0.85
2022-11-09T07:45:03.238Z,0.84
2022-11-09T07:46:03.178Z,0.45
2022-11-09T07:47:03.806Z,1.16
2022-11-09T07:48:03.361Z,0.73
2022-11-09T07:49:03.366Z,0.00
2022-11-09T07:50:03.950Z,0.00
2022-11-09T07:51:03.617Z,0.00
2022-11-09T07:52:03.294Z,0.00
2022-11-09T07:53:03.392Z,0.88
2022-11-09T07:54:03.249Z,0.49
2022-11-09T07:55:03.182Z,0.00
2022-11-09T07:56:03.168Z,0.00
2022-11-09T07:57:03.790Z,0.24
2022-11-09T07:58:03.618Z,0.04
2022-11-09T07:59:03.677Z,0.16
2022-11-09T08:00:03.698Z,0.04
2022-11-09T08:01:03.890Z,0.12
2022-11-09T08:02:02.380Z,0.62
2022-11-09T08:03:01.711Z,0.33
2022-11-09T08:04:02.271Z,0.00
2022-11-09T08:05:01.968Z,0.45
2022-11-09T08:06:01.782Z,0.98
2022-11-09T08:07:02.237Z,1.32
2022-11-09T08:08:02.088Z,1.30
2022-11-09T08:09:02.136Z,1.12
2022-11-09T08:10:02.135Z,1.06
2022-11-09T08:11:02.055Z,1.30
2022-11-09T08:12:02.640Z,1.52
2022-11-09T08:13:02.335Z,1.10
2022-11-09T08:14:02.348Z,1.20
2022-11-09T08:15:02.379Z,1.20
2022-11-09T08:16:02.643Z,1.60
2022-11-09T08:17:02.396Z,1.02
2022-11-09T08:18:02.165Z,2.08
2022-11-09T08:19:02.225Z,2.76
2022-11-09T08:20:02.128Z,1.30
2022-11-09T08:21:02.126Z,0.98
2022-11-09T08:22:02.786Z,0.92
2022-11-09T08:23:04.608Z,1.26
2022-11-09T08:24:02.545Z,0.41
2022-11-09T08:25:02.483Z,1.18
2022-11-09T08:26:02.499Z,2.84
2022-11-09T08:27:02.822Z,2.28
2022-11-09T08:28:02.521Z,1.51
2022-11-09T08:29:02.412Z,2.69
2022-11-09T08:30:02.173Z,1.63
2022-11-09T08:31:02.238Z,0.96
2022-11-09T08:32:02.481Z,2.28
2022-11-09T08:33:02.477Z,2.12
2022-11-09T08:34:03.018Z,2.24
2022-11-09T08:35:02.644Z,1.99
2022-11-09T08:36:02.876Z,1.16
2022-11-09T08:37:01.834Z,1.32
2022-11-09T08:38:01.935Z,1.20
2022-11-09T08:39:02.290Z,1.08
2022-11-09T08:40:01.923Z,2.03
2022-11-09T08:41:01.961Z,1.68
2022-11-09T08:42:02.070Z,1.96
2022-11-09T08:43:02.614Z,3.00
2022-11-09T08:44:02.027Z,1.55
2022-11-09T08:45:02.670Z,1.36
2022-11-09T08:46:02.387Z,1.79
2022-11-09T08:47:02.504Z,1.52
2022-11-09T08:48:02.901Z,2.00
2022-11-09T08:49:02.884Z,2.16
2022-11-09T08:50:02.605Z,2.36
2022-11-09T08:51:02.609Z,2.00
2022-11-09T08:52:01.639Z,2.97
2022-11-09T08:53:01.717Z,2.44
2022-11-09T08:54:01.637Z,2.40
2022-11-09T08:55:02.033Z,2.16
2022-11-09T08:56:01.975Z,2.60
2022-11-09T08:57:01.771Z,2.73
2022-11-09T08:58:02.058Z,2.44
2022-11-09T08:59:01.796Z,1.99
2022-11-09T09:00:01.896Z,1.88
2022-11-09T09:01:02.028Z,2.24
2022-11-09T09:02:01.927Z,2.56
2022-11-09T09:03:02.372Z,2.44
2022-11-09T09:04:02.177Z,1.79
2022-11-09T09:05:02.125Z,2.12
2022-11-09T09:06:02.094Z,3.70
2022-11-09T09:07:02.167Z,4.68
2022-11-09T09:08:02.151Z,2.44
2022-11-09T09:09:02.579Z,3.48
2022-11-09T09:10:02.549Z,2.28
2022-11-09T09:11:02.606Z,2.64
2022-11-09T09:12:02.381Z,2.52
2022-11-09T09:13:02.366Z,1.34
2022-11-09T09:14:02.569Z,3.92
2022-11-09T09:15:02.534Z,4.31
2022-11-09T09:16:02.715Z,4.24
2022-11-09T09:17:02.760Z,2.36
2022-11-09T09:18:02.822Z,2.88
2022-11-09T09:19:03.089Z,1.76
2022-11-09T09:20:03.078Z,3.26
2022-11-09T09:21:03.294Z,2.16
2022-11-09T09:22:01.975Z,3.97
2022-11-09T09:23:02.056Z,3.20
2022-11-09T09:24:02.265Z,2.68
2022-11-09T09:25:02.381Z,1.96
2022-11-09T09:26:02.244Z,2.73
2022-11-09T09:27:02.144Z,2.48
2022-11-09T09:28:02.222Z,3.28
2022-11-09T09:29:02.209Z,4.07
2022-11-09T09:30:02.125Z,4.15
2022-11-09T09:31:02.140Z,4.92
2022-11-09T09:32:02.270Z,3.72
2022-11-09T09:33:02.306Z,4.52
2022-11-09T09:34:02.645Z,3.16
2022-11-09T09:35:02.757Z,1.84
2022-11-09T09:36:02.533Z,2.77
2022-11-09T09:37:02.604Z,3.68
2022-11-09T09:38:02.881Z,2.76
2022-11-09T09:39:02.674Z,3.09
2022-11-09T09:40:02.582Z,2.60
2022-11-09T09:41:03.076Z,2.84
2022-11-09T09:42:02.777Z,1.87
2022-11-09T09:43:02.696Z,2.73
2022-11-09T09:44:02.808Z,1.96
2022-11-09T09:45:02.980Z,2.76
2022-11-09T09:46:03.080Z,2.56
2022-11-09T09:47:02.229Z,2.77
2022-11-09T09:48:02.166Z,3.54
2022-11-09T09:49:02.516Z,5.44
2022-11-09T09:50:02.074Z,2.08
2022-11-09T09:51:02.351Z,3.40
2022-11-09T09:52:02.482Z,3.48
2022-11-09T09:53:23.381Z,3.00
2022-11-09T09:54:02.473Z,3.09
2022-11-09T09:55:02.452Z,4.52
2022-11-09T09:56:02.860Z,5.08
2022-11-09T09:57:02.040Z,4.84
2022-11-09T09:58:02.147Z,2.40
2022-11-09T09:59:01.867Z,2.77
2022-11-09T10:00:02.247Z,3.44
2022-11-09T10:01:01.816Z,4.96
2022-11-09T10:02:02.601Z,4.96
2022-11-09T10:03:02.682Z,4.84
2022-11-09T10:04:02.664Z,3.83
2022-11-09T10:05:02.332Z,3.54
2022-11-09T10:06:02.895Z,2.48
2022-11-09T10:07:02.999Z,2.32
2022-11-09T10:08:03.077Z,5.92
2022-11-09T10:09:02.817Z,2.89
2022-11-09T10:10:02.778Z,2.93
2022-11-09T10:11:02.869Z,2.40
2022-11-09T10:12:02.593Z,3.01
2022-11-09T10:13:02.596Z,1.96
2022-11-09T10:14:02.674Z,2.20
2022-11-09T10:15:02.688Z,2.80
2022-11-09T10:16:02.785Z,2.44
2022-11-09T10:17:02.807Z,2.44
2022-11-09T10:18:02.879Z,1.20
2022-11-09T10:19:02.948Z,2.96
2022-11-09T10:20:02.921Z,4.07
2022-11-09T10:21:02.903Z,4.07
2022-11-09T10:22:02.848Z,4.48
2022-11-09T10:23:03.220Z,4.36
2022-11-09T10:24:03.191Z,3.34
2022-11-09T10:26:05.301Z,3.80
2022-11-09T10:27:03.536Z,3.60
2022-11-09T10:28:03.626Z,2.72
2022-11-09T10:29:15.951Z,2.20
2022-11-09T10:30:03.605Z,3.28
2022-11-09T10:31:03.742Z,2.88
2022-11-09T10:32:02.664Z,3.19
2022-11-09T10:33:02.771Z,3.72
2022-11-09T10:34:02.888Z,2.96
2022-11-09T10:35:02.735Z,3.05
2022-11-09T10:36:07.974Z,4.00
2022-11-09T10:37:02.852Z,2.76
2022-11-09T10:38:02.666Z,2.48
2022-11-09T10:39:02.685Z,2.84
2022-11-09T10:40:03.077Z,2.96
2022-11-09T10:41:03.039Z,3.58
2022-11-09T10:42:02.534Z,4.31
2022-11-09T10:43:02.229Z,2.77
2022-11-09T10:44:02.349Z,3.32
2022-11-09T10:45:02.219Z,4.27
2022-11-09T10:46:02.342Z,2.12
2022-11-09T10:47:02.875Z,1.88
2022-11-09T10:48:02.399Z,2.97
2022-11-09T10:49:02.385Z,1.99
2022-11-09T10:50:02.478Z,3.32
2022-11-09T10:51:02.794Z,4.20
2022-11-09T10:52:02.831Z,4.16
2022-11-09T10:53:03.025Z,4.28
2022-11-09T10:54:02.667Z,2.85
2022-11-09T10:55:02.742Z,3.16
2022-11-09T10:56:02.693Z,3.42
2022-11-09T10:57:07.112Z,3.32
2022-11-09T10:58:03.577Z,2.28
2022-11-09T10:59:03.181Z,4.76
2022-11-09T11:00:03.115Z,4.64
2022-11-09T11:01:03.467Z,2.56
2022-11-09T11:02:02.713Z,4.64
2022-11-09T11:03:02.895Z,2.56
2022-11-09T11:04:02.959Z,2.40
2022-11-09T11:05:02.724Z,2.89
2022-11-09T11:06:02.578Z,2.97
2022-11-09T11:07:03.320Z,2.52
2022-11-09T11:08:03.095Z,1.99
2022-11-09T11:09:03.208Z,3.72
2022-11-09T11:10:03.204Z,2.36
2022-11-09T11:11:27.235Z,2.08
2022-11-09T11:12:03.317Z,3.28
2022-11-09T11:13:02.989Z,3.66
2022-11-09T11:14:03.124Z,3.00
2022-11-09T11:15:03.184Z,2.76
2022-11-09T11:16:03.368Z,3.44
2022-11-09T11:17:02.887Z,4.40
2022-11-09T11:18:02.508Z,4.44
2022-11-09T11:19:02.810Z,2.88
2022-11-09T11:20:03.030Z,2.44
2022-11-09T11:21:02.868Z,2.97
2022-11-09T11:22:02.578Z,2.08
2022-11-09T11:23:02.533Z,4.11
2022-11-09T11:24:02.620Z,2.48
2022-11-09T11:25:02.310Z,2.69
2022-11-09T11:26:02.280Z,2.89
2022-11-09T11:27:07.916Z,2.16
2022-11-09T11:28:03.085Z,2.52
2022-11-09T11:29:03.111Z,2.48
2022-11-09T11:30:02.622Z,3.50
2022-11-09T11:31:03.111Z,3.64
2022-11-09T11:32:02.674Z,2.52
2022-11-09T11:33:02.206Z,2.77
2022-11-09T11:34:02.160Z,2.48
2022-11-09T11:35:02.514Z,1.76
2022-11-09T11:36:02.468Z,2.08
2022-11-09T11:37:02.756Z,1.28
2022-11-09T11:38:02.566Z,1.34
2022-11-09T11:39:02.752Z,1.96
2022-11-09T11:40:02.761Z,1.24
2022-11-09T11:41:02.944Z,1.96
2022-11-09T11:42:02.132Z,2.52
2022-11-09T11:43:02.794Z,2.72
2022-11-09T11:44:03.043Z,1.47
2022-11-09T11:45:33.555Z,1.88
2022-11-09T11:46:02.674Z,2.08
2022-11-09T11:47:02.325Z,2.81
2022-11-09T11:48:02.722Z,1.84
2022-11-09T11:49:02.413Z,1.51
2022-11-09T11:50:02.886Z,2.84
2022-11-09T11:51:02.494Z,3.38
2022-11-09T11:52:02.448Z,2.60
2022-11-09T11:53:03.105Z,2.12
2022-11-09T11:54:03.058Z,3.58
2022-11-09T11:55:02.921Z,2.36
2022-11-09T11:56:02.846Z,2.40
2022-11-09T11:57:03.028Z,1.24
2022-11-09T11:58:02.183Z,1.63
2022-11-09T11:59:02.714Z,1.72
2022-11-09T12:00:02.279Z,2.40
2022-11-09T12:01:02.144Z,2.08
2022-11-09T12:02:02.379Z,2.04
2022-11-09T12:03:03.278Z,2.96
2022-11-09T12:04:03.208Z,2.72
2022-11-09T12:05:02.947Z,2.81
2022-11-09T12:06:02.875Z,2.03
2022-11-09T12:07:02.630Z,1.22
2022-11-09T12:08:03.153Z,1.40
2022-11-09T12:09:02.881Z,2.77
2022-11-09T12:10:03.346Z,1.84
2022-11-09T12:11:03.164Z,2.32
2022-11-09T12:12:02.856Z,2.89
2022-11-09T12:13:02.142Z,1.91
2022-11-09T12:14:02.091Z,1.95
2022-11-09T12:15:02.176Z,1.68
2022-11-09T12:16:02.068Z,1.30
2022-11-09T12:17:02.507Z,2.08
2022-11-09T12:18:02.437Z,1.79
2022-11-09T12:19:02.574Z,0.80
2022-11-09T12:20:02.522Z,2.32
2022-11-09T12:21:02.572Z,3.32
2022-11-09T12:22:02.656Z,2.04
2022-11-09T12:23:02.694Z,2.08
2022-11-09T12:24:02.375Z,1.95
2022-11-09T12:25:02.556Z,2.76
2022-11-09T12:26:02.591Z,4.28
2022-11-09T12:27:30.333Z,5.09
2022-11-09T12:28:03.378Z,7.64
2022-11-09T12:29:03.388Z,4.64
2022-11-09T12:30:03.319Z,5.45
2022-11-09T12:31:03.360Z,7.52
2022-11-09T12:32:03.548Z,3.76
2022-11-09T12:33:03.496Z,7.16
2022-11-09T12:34:03.276Z,3.13
2022-11-09T12:35:02.961Z,3.83
2022-11-09T12:36:03.138Z,4.24
2022-11-09T12:37:03.300Z,5.32
2022-11-09T12:38:03.326Z,5.40
2022-11-09T12:39:03.481Z,3.92
2022-11-09T12:40:03.165Z,1.91
2022-11-09T12:41:03.197Z,3.40
2022-11-09T12:42:03.420Z,4.28
2022-11-09T12:43:03.153Z,4.35
2022-11-09T12:44:03.481Z,4.16
2022-11-09T12:45:03.450Z,4.19
2022-11-09T12:46:03.635Z,3.32
2022-11-09T12:47:03.676Z,1.92
2022-11-09T12:48:02.366Z,1.41
2022-11-09T12:49:02.373Z,3.24
2022-11-09T12:50:02.419Z,3.52
2022-11-09T12:51:02.999Z,3.08
2022-11-09T12:52:03.002Z,4.40
2022-11-09T12:53:02.602Z,5.25
2022-11-09T12:54:02.532Z,4.15
2022-11-09T12:55:02.747Z,3.64
2022-11-09T12:56:02.697Z,4.68
2022-11-09T12:57:02.889Z,2.92
2022-11-09T12:58:02.870Z,3.66
2022-11-09T12:59:02.777Z,3.83
2022-11-09T13:00:02.839Z,2.84
2022-11-09T13:01:02.952Z,3.84
2022-11-09T13:02:03.131Z,1.92
2022-11-09T13:03:02.820Z,2.03
2022-11-09T13:04:02.748Z,2.65
2022-11-09T13:05:03.051Z,3.60
2022-11-09T13:06:02.928Z,2.12
2022-11-09T13:07:03.004Z,2.12
2022-11-09T13:08:01.930Z,2.81
2022-11-09T13:09:01.738Z,4.56
2022-11-09T13:10:02.328Z,3.12
2022-11-09T13:11:01.749Z,3.01
2022-11-09T13:12:02.220Z,2.08
2022-11-09T13:13:02.287Z,3.32
2022-11-09T13:14:02.409Z,4.16
2022-11-09T13:15:02.223Z,3.34
2022-11-09T13:16:02.363Z,2.52
2022-11-09T13:17:02.488Z,3.24
2022-11-09T13:18:02.547Z,4.20
2022-11-09T13:19:03.139Z,4.32
2022-11-09T13:20:03.066Z,2.20
2022-11-09T13:21:02.721Z,2.65